createdAt,value
2019-04-13T00:01:11.013Z,21.70
2019-04-13T00:03:37.326Z,17.83
2019-04-13T00:06:08.098Z,18.23
2019-04-13T00:08:36.332Z,16.50
2019-04-13T00:11:04.592Z,15.90
2019-04-13T00:13:30.798Z,16.87
2019-04-13T00:15:57.250Z,15.10
2019-04-13T00:18:23.494Z,14.43
2019-04-13T00:20:49.651Z,13.83
2019-04-13T00:23:15.979Z,13.73
2019-04-13T00:25:42.140Z,13.57
2019-04-13T00:28:08.364Z,15.60
2019-04-13T00:30:34.500Z,15.80
2019-04-13T00:33:00.842Z,14.07
2019-04-13T00:35:27.051Z,17.53
2019-04-13T00:37:53.176Z,16.60
2019-04-13T00:40:19.355Z,18.07
2019-04-13T00:42:45.505Z,17.90
2019-04-13T00:45:12.170Z,16.43
2019-04-13T00:47:38.365Z,15.30
2019-04-13T00:50:05.363Z,15.13
2019-04-13T00:52:31.617Z,13.83
2019-04-13T00:54:57.796Z,15.17
2019-04-13T00:57:24.039Z,14.10
2019-04-13T00:59:50.188Z,16.80
2019-04-13T01:02:16.331Z,16.87
2019-04-13T01:04:53.049Z,24.20
2019-04-13T01:07:10.733Z,22.20
2019-04-13T01:09:37.078Z,20.17
2019-04-13T01:12:03.442Z,21.97
2019-04-13T01:14:29.670Z,20.17
2019-04-13T01:16:56.008Z,22.60
2019-04-13T01:19:22.354Z,19.97
2019-04-13T01:21:48.559Z,18.53
2019-04-13T01:24:14.772Z,18.73
2019-04-13T01:26:40.898Z,17.93
2019-04-13T01:29:07.041Z,18.00
2019-04-13T01:31:33.193Z,18.80
2019-04-13T01:33:59.445Z,21.00
2019-04-13T01:36:25.662Z,19.67
2019-04-13T01:38:52.052Z,18.07
2019-04-13T01:41:18.257Z,20.07
2019-04-13T01:43:44.449Z,22.07
2019-04-13T01:46:10.645Z,20.03
2019-04-13T01:48:36.870Z,18.97
2019-04-13T01:51:03.195Z,22.30
2019-04-13T01:53:29.458Z,21.17
2019-04-13T01:55:55.695Z,20.57
2019-04-13T01:58:21.853Z,18.80
2019-04-13T02:00:52.785Z,18.13
2019-04-13T02:03:19.156Z,17.73
2019-04-13T02:06:04.050Z,17.40
2019-04-13T02:08:49.123Z,18.40
2019-04-13T02:11:26.247Z,19.47
2019-04-13T02:13:52.395Z,18.03
2019-04-13T02:16:18.517Z,20.30
2019-04-13T02:18:44.721Z,19.77
2019-04-13T02:21:10.975Z,18.20
2019-04-13T02:23:37.135Z,18.53
2019-04-13T02:26:03.355Z,19.60
2019-04-13T02:28:29.590Z,21.97
2019-04-13T02:30:55.940Z,21.07
2019-04-13T02:33:22.200Z,19.43
2019-04-13T02:35:48.388Z,19.17
2019-04-13T02:38:14.547Z,20.17
2019-04-13T02:40:40.797Z,19.20
2019-04-13T02:43:07.032Z,21.93
2019-04-13T02:45:33.287Z,19.37
2019-04-13T02:47:59.629Z,20.63
2019-04-13T02:50:25.752Z,20.87
2019-04-13T02:52:52.020Z,22.07
2019-04-13T02:55:18.285Z,19.37
2019-04-13T02:57:44.538Z,19.53
2019-04-13T03:00:11.984Z,19.13
2019-04-13T03:02:38.502Z,17.97
2019-04-13T03:05:05.345Z,19.07
2019-04-13T03:07:31.798Z,19.63
2019-04-13T03:09:58.122Z,19.93
2019-04-13T03:12:24.438Z,21.10
2019-04-13T03:14:50.790Z,20.40
2019-04-13T03:17:25.196Z,17.30
2019-04-13T03:19:59.276Z,16.17
2019-04-13T03:22:25.500Z,17.40
2019-04-13T03:24:51.749Z,17.30
2019-04-13T03:27:18.013Z,16.30
2019-04-13T03:29:44.241Z,18.47
2019-04-13T03:32:10.484Z,20.80
2019-04-13T03:34:36.704Z,18.27
2019-04-13T03:37:02.975Z,17.63
2019-04-13T03:39:29.378Z,17.50
2019-04-13T03:41:55.610Z,19.27
2019-04-13T03:44:21.844Z,18.70
2019-04-13T03:46:48.022Z,16.90
2019-04-13T03:49:14.133Z,18.80
2019-04-13T03:51:40.268Z,18.00
2019-04-13T03:54:06.521Z,15.87
2019-04-13T03:56:32.780Z,17.40
2019-04-13T03:58:59.137Z,16.77
2019-04-13T04:01:25.247Z,21.13
2019-04-13T04:03:51.406Z,18.27
2019-04-13T04:06:17.628Z,18.90
2019-04-13T04:08:43.780Z,19.50
2019-04-13T04:11:10.016Z,18.80
2019-04-13T04:13:36.167Z,18.20
2019-04-13T04:16:02.379Z,17.50
2019-04-13T04:18:28.944Z,21.47
2019-04-13T04:20:55.187Z,19.63
2019-04-13T04:23:21.516Z,19.03
2019-04-13T04:25:47.654Z,18.90
2019-04-13T04:28:13.766Z,17.00
2019-04-13T04:30:40.082Z,15.83
2019-04-13T04:33:06.228Z,17.67
2019-04-13T04:35:32.444Z,18.30
2019-04-13T04:37:58.686Z,23.90
2019-04-13T04:40:24.929Z,20.70
2019-04-13T04:42:51.209Z,22.77
2019-04-13T04:45:17.394Z,21.33
2019-04-13T04:47:43.786Z,22.07
2019-04-13T04:50:10.035Z,21.83
2019-04-13T04:52:36.199Z,21.77
2019-04-13T04:55:03.904Z,20.13
2019-04-13T04:57:30.133Z,20.30
2019-04-13T04:59:56.403Z,21.07
2019-04-13T05:02:22.604Z,19.50
2019-04-13T05:04:48.833Z,20.67
2019-04-13T05:07:15.038Z,24.37
2019-04-13T05:09:41.203Z,21.47
2019-04-13T05:12:07.336Z,22.70
2019-04-13T05:14:33.559Z,20.47
2019-04-13T05:16:59.702Z,21.57
2019-04-13T05:19:25.965Z,25.57
2019-04-13T05:21:52.177Z,23.90
2019-04-13T05:24:18.402Z,23.43
2019-04-13T05:26:44.556Z,23.77
2019-04-13T05:29:10.869Z,23.60
2019-04-13T05:31:37.007Z,28.30
2019-04-13T05:34:03.140Z,24.10
2019-04-13T05:36:29.413Z,26.80
2019-04-13T05:38:55.871Z,24.60
2019-04-13T05:41:22.079Z,27.23
2019-04-13T05:43:48.271Z,27.23
2019-04-13T05:46:14.575Z,26.90
2019-04-13T05:48:40.790Z,25.57
2019-04-13T05:51:07.415Z,26.80
2019-04-13T05:53:33.592Z,28.83
2019-04-13T05:55:59.719Z,26.63
2019-04-13T05:58:25.930Z,28.70
2019-04-13T06:00:52.487Z,27.37
2019-04-13T06:03:18.618Z,26.20
2019-04-13T06:05:44.868Z,26.70
2019-04-13T06:08:11.094Z,25.87
2019-04-13T06:10:37.241Z,27.13
2019-04-13T06:13:03.578Z,27.87
2019-04-13T06:15:31.127Z,28.27
2019-04-13T06:17:57.786Z,26.37
2019-04-13T06:20:23.919Z,26.07
2019-04-13T06:22:52.199Z,28.20
2019-04-13T06:25:18.205Z,31.53
2019-04-13T06:27:44.454Z,29.83
2019-04-13T06:30:31.015Z,29.73
2019-04-13T06:32:59.117Z,32.40
2019-04-13T06:35:27.303Z,29.93
2019-04-13T06:37:55.357Z,28.93
2019-04-13T06:40:21.692Z,31.40
2019-04-13T06:42:50.256Z,32.23
2019-04-13T06:45:16.405Z,55.67
2019-04-13T06:47:42.675Z,71.80
2019-04-13T06:50:08.985Z,49.20
2019-04-13T06:52:36.036Z,36.10
2019-04-13T06:55:05.480Z,32.17
2019-04-13T06:57:31.770Z,33.13
2019-04-13T06:59:58.237Z,30.43
2019-04-13T07:02:24.596Z,32.67
2019-04-13T07:04:50.751Z,30.93
2019-04-13T07:07:30.939Z,32.77
2019-04-13T07:10:15.439Z,29.93
2019-04-13T07:12:52.495Z,30.00
2019-04-13T07:15:18.830Z,30.40
2019-04-13T07:17:44.960Z,30.13
2019-04-13T07:20:14.275Z,29.80
2019-04-13T07:22:39.338Z,30.53
2019-04-13T07:25:05.688Z,31.67
2019-04-13T07:27:31.969Z,32.30
2019-04-13T07:29:58.162Z,32.20
2019-04-13T07:32:24.396Z,33.63
2019-04-13T07:34:50.643Z,32.63
2019-04-13T07:37:16.982Z,32.07
2019-04-13T07:39:43.119Z,31.80
2019-04-13T07:42:09.234Z,31.03
2019-04-13T07:44:40.314Z,32.67
2019-04-13T07:47:26.688Z,29.93
2019-04-13T07:50:01.100Z,34.70
2019-04-13T07:52:29.851Z,32.23
2019-04-13T07:54:56.060Z,31.40
2019-04-13T07:57:22.319Z,33.13
2019-04-13T07:59:50.689Z,28.37
2019-04-13T08:02:16.781Z,33.57
2019-04-13T08:04:43.071Z,33.77
2019-04-13T08:07:09.294Z,33.27
2019-04-13T08:09:35.543Z,31.37
2019-04-13T08:12:01.702Z,31.07
2019-04-13T08:14:29.307Z,34.77
2019-04-13T08:16:55.730Z,34.97
2019-04-13T08:19:26.771Z,34.20
2019-04-13T08:21:52.894Z,34.00
2019-04-13T08:24:19.019Z,34.57
2019-04-13T08:26:46.431Z,33.50
2019-04-13T08:29:13.364Z,34.27
2019-04-13T08:31:40.680Z,34.37
2019-04-13T08:34:06.967Z,34.03
2019-04-13T08:36:33.258Z,30.20
2019-04-13T08:38:59.629Z,30.33
2019-04-13T08:41:25.830Z,33.83
2019-04-13T08:43:52.084Z,33.03
2019-04-13T08:46:18.302Z,33.30
2019-04-13T08:48:44.439Z,33.23
2019-04-13T08:51:10.788Z,32.03
2019-04-13T08:53:38.758Z,34.90
2019-04-13T08:56:04.892Z,35.07
2019-04-13T08:58:32.369Z,33.13
2019-04-13T09:00:58.595Z,34.27
2019-04-13T09:03:24.821Z,32.23
2019-04-13T09:05:50.975Z,31.13
2019-04-13T09:08:28.918Z,30.57
2019-04-13T09:10:45.181Z,31.35
2019-04-13T09:13:11.563Z,29.70
2019-04-13T09:15:43.389Z,33.08
2019-04-13T09:18:10.514Z,28.42
2019-04-13T09:20:50.286Z,29.75
2019-04-13T09:23:16.505Z,28.95
2019-04-13T09:25:42.780Z,28.80
2019-04-13T09:28:11.555Z,29.67
2019-04-13T09:30:38.843Z,28.20
2019-04-13T09:33:05.050Z,30.55
2019-04-13T09:35:31.194Z,30.20
2019-04-13T09:37:57.352Z,30.35
2019-04-13T09:40:23.694Z,29.57
2019-04-13T09:42:50.001Z,31.90
2019-04-13T09:45:17.249Z,30.88
2019-04-13T09:47:43.475Z,30.55
2019-04-13T09:50:09.744Z,29.70
2019-04-13T09:52:35.982Z,30.90
2019-04-13T09:55:02.361Z,30.48
2019-04-13T09:57:29.260Z,29.00
2019-04-13T09:59:57.310Z,28.60
2019-04-13T10:02:26.097Z,33.15
2019-04-13T10:04:51.821Z,31.57
2019-04-13T10:07:18.055Z,28.73
2019-04-13T10:09:44.256Z,30.68
2019-04-13T10:12:28.833Z,31.82
2019-04-13T10:14:59.945Z,29.82
2019-04-13T10:17:30.731Z,26.05
2019-04-13T10:19:56.946Z,30.02
2019-04-13T10:22:24.603Z,33.85
2019-04-13T10:24:50.883Z,33.83
2019-04-13T10:27:19.412Z,35.98
2019-04-13T10:29:47.165Z,36.08
2019-04-13T10:32:13.297Z,34.63
2019-04-13T10:34:39.636Z,32.55
2019-04-13T10:37:05.884Z,36.05
2019-04-13T10:39:32.163Z,32.40
2019-04-13T10:41:58.794Z,33.67
2019-04-13T10:44:26.938Z,32.17
2019-04-13T10:47:02.619Z,35.33
2019-04-13T10:49:45.666Z,37.70
2019-04-13T10:52:20.950Z,35.98
2019-04-13T10:54:47.723Z,32.63
2019-04-13T10:57:13.930Z,35.48
2019-04-13T10:59:40.220Z,32.67
2019-04-13T11:02:06.354Z,31.97
2019-04-13T11:04:32.610Z,37.28
2019-04-13T11:06:58.828Z,35.03
2019-04-13T11:09:28.526Z,36.60
2019-04-13T11:11:53.236Z,33.50
2019-04-13T11:14:19.460Z,36.05
2019-04-13T11:16:45.715Z,38.07
2019-04-13T11:19:11.971Z,38.25
2019-04-13T11:21:38.298Z,36.23
2019-04-13T11:24:04.515Z,37.27
2019-04-13T11:26:30.870Z,40.33
2019-04-13T11:28:57.149Z,39.50
2019-04-13T11:31:23.705Z,38.97
2019-04-13T11:33:50.053Z,37.65
2019-04-13T11:36:16.480Z,37.13
2019-04-13T11:38:42.735Z,38.80
2019-04-13T11:41:14.039Z,39.90
2019-04-13T11:43:54.039Z,37.85
2019-04-13T11:46:34.378Z,41.42
2019-04-13T11:49:02.433Z,38.15
2019-04-13T11:51:32.172Z,36.90
2019-04-13T11:53:58.400Z,37.27
2019-04-13T11:56:24.729Z,37.80
2019-04-13T11:58:51.130Z,40.90
2019-04-13T12:01:19.221Z,43.33
2019-04-13T12:03:47.339Z,41.37
2019-04-13T12:06:18.368Z,43.07
2019-04-13T12:08:59.288Z,43.30
2019-04-13T12:11:42.062Z,43.40
2019-04-13T12:14:26.872Z,45.37
2019-04-13T12:17:03.822Z,42.10
2019-04-13T12:19:31.942Z,45.80
2019-04-13T12:22:02.789Z,44.13
2019-04-13T12:24:29.008Z,42.10
2019-04-13T12:26:55.273Z,42.33
2019-04-13T12:29:21.508Z,42.03
2019-04-13T12:31:47.959Z,43.70
2019-04-13T12:34:14.165Z,48.27
2019-04-13T12:36:40.400Z,46.67
2019-04-13T12:39:07.733Z,47.23
2019-04-13T12:41:42.294Z,46.97
2019-04-13T12:44:08.763Z,48.40
2019-04-13T12:46:35.171Z,48.60
2019-04-13T12:49:01.310Z,48.03
2019-04-13T12:51:27.548Z,47.97
2019-04-13T12:53:53.702Z,44.37
2019-04-13T12:56:20.000Z,43.37
2019-04-13T12:58:46.353Z,49.13
2019-04-13T13:01:17.082Z,47.17
2019-04-13T13:03:43.207Z,45.33
2019-04-13T13:06:09.553Z,45.87
2019-04-13T13:08:36.924Z,45.53
2019-04-13T13:11:03.946Z,45.90
2019-04-13T13:13:30.066Z,45.67
2019-04-13T13:15:56.331Z,44.93
2019-04-13T13:18:26.119Z,43.20
2019-04-13T13:20:50.718Z,43.63
2019-04-13T13:23:17.068Z,47.13
2019-04-13T13:25:43.207Z,44.50
2019-04-13T13:28:12.111Z,45.17
2019-04-13T13:30:37.592Z,46.40
2019-04-13T13:33:03.884Z,48.20
2019-04-13T13:35:32.863Z,48.03
2019-04-13T13:37:59.098Z,46.80
2019-04-13T13:40:30.984Z,48.40
2019-04-13T13:42:53.398Z,46.33
2019-04-13T13:45:25.058Z,48.60
2019-04-13T13:47:48.833Z,46.33
2019-04-13T13:50:15.266Z,45.97
2019-04-13T13:52:41.499Z,44.87
2019-04-13T13:55:11.394Z,40.13
2019-04-13T13:57:38.587Z,47.07
2019-04-13T14:00:07.254Z,44.10
2019-04-13T14:02:34.801Z,45.57
2019-04-13T14:05:01.398Z,45.40
2019-04-13T14:07:27.667Z,43.87
2019-04-13T14:10:10.300Z,43.00
2019-04-13T14:12:36.545Z,42.50
2019-04-13T14:15:07.464Z,43.10
2019-04-13T14:17:33.053Z,46.00
2019-04-13T14:20:01.399Z,48.33
2019-04-13T14:22:27.388Z,45.90
2019-04-13T14:24:53.662Z,46.27
2019-04-13T14:27:19.923Z,43.20
2019-04-13T14:29:46.155Z,44.17
2019-04-13T14:32:12.343Z,47.50
2019-04-13T14:34:38.561Z,47.10
2019-04-13T14:37:04.799Z,46.90
2019-04-13T14:39:34.536Z,46.70
2019-04-13T14:41:59.265Z,45.67
2019-04-13T14:44:25.406Z,45.97
2019-04-13T14:46:51.583Z,46.63
2019-04-13T14:49:17.818Z,45.70
2019-04-13T14:51:43.961Z,42.20
2019-04-13T14:54:10.250Z,44.43
2019-04-13T14:56:36.385Z,43.40
2019-04-13T14:59:02.896Z,47.43
2019-04-13T15:01:29.047Z,45.47
2019-04-13T15:03:55.267Z,44.73
2019-04-13T15:06:24.866Z,44.87
2019-04-13T15:08:49.661Z,47.97
2019-04-13T15:11:17.409Z,47.73
2019-04-13T15:13:44.978Z,47.87
2019-04-13T15:16:16.383Z,49.00
2019-04-13T15:18:46.081Z,49.27
2019-04-13T15:21:13.225Z,43.67
2019-04-13T15:23:42.464Z,45.67
2019-04-13T15:26:08.151Z,47.53
2019-04-13T15:28:37.912Z,50.13
2019-04-13T15:31:06.110Z,46.47
2019-04-13T15:33:32.775Z,49.60
2019-04-13T15:36:02.798Z,48.90
2019-04-13T15:38:28.416Z,49.83
2019-04-13T15:40:58.654Z,58.73
2019-04-13T15:43:28.603Z,54.30
2019-04-13T15:45:52.545Z,58.43
2019-04-13T15:48:20.264Z,60.20
2019-04-13T15:50:46.765Z,53.77
2019-04-13T15:53:13.969Z,54.57
2019-04-13T15:55:40.179Z,55.20
2019-04-13T15:58:06.353Z,67.43
2019-04-13T16:00:33.803Z,54.37
2019-04-13T16:03:00.543Z,52.03
2019-04-13T16:05:28.747Z,49.07
2019-04-13T16:07:55.181Z,49.40
2019-04-13T16:10:24.716Z,47.30
2019-04-13T16:13:02.467Z,52.23
2019-04-13T16:15:36.427Z,48.63
2019-04-13T16:18:02.822Z,48.70
2019-04-13T16:20:29.477Z,50.57
2019-04-13T16:22:55.856Z,52.60
2019-04-13T16:25:22.775Z,52.00
2019-04-13T16:27:53.679Z,51.57
2019-04-13T16:30:39.068Z,54.07
2019-04-13T16:33:23.949Z,54.03
2019-04-13T16:35:52.088Z,52.60
2019-04-13T16:38:18.328Z,52.57
2019-04-13T16:40:45.680Z,54.57
2019-04-13T16:43:11.930Z,53.40
2019-04-13T16:45:44.286Z,54.30
2019-04-13T16:48:29.589Z,54.90
2019-04-13T16:50:57.792Z,54.77
2019-04-13T16:53:43.096Z,57.57
2019-04-13T16:56:12.221Z,55.43
2019-04-13T16:58:44.127Z,55.33
2019-04-13T17:01:12.516Z,58.10
2019-04-13T17:03:43.793Z,56.03
2019-04-13T17:06:11.289Z,54.73
2019-04-13T17:08:37.446Z,55.60
2019-04-13T17:11:04.868Z,54.43
2019-04-13T17:13:32.277Z,54.43
2019-04-13T17:15:58.869Z,52.67
2019-04-13T17:18:27.455Z,53.27
2019-04-13T17:20:59.835Z,54.60
2019-04-13T17:23:31.499Z,54.50
2019-04-13T17:26:00.078Z,53.73
2019-04-13T17:28:28.836Z,52.57
2019-04-13T17:31:14.187Z,53.93
2019-04-13T17:33:42.445Z,51.27
2019-04-13T17:36:08.672Z,50.30
2019-04-13T17:38:35.113Z,52.07
2019-04-13T17:41:03.631Z,50.60
2019-04-13T17:43:49.500Z,51.87
2019-04-13T17:46:20.600Z,51.53
2019-04-13T17:49:05.197Z,51.70
2019-04-13T17:51:36.052Z,48.03
2019-04-13T17:54:10.470Z,47.87
2019-04-13T17:56:36.677Z,47.93
2019-04-13T17:59:21.995Z,51.33
2019-04-13T18:01:53.118Z,51.23
2019-04-13T18:04:37.723Z,46.57
2019-04-13T18:07:12.159Z,55.27
2019-04-13T18:09:55.994Z,46.37
2019-04-13T18:12:37.502Z,50.23
2019-04-13T18:15:07.439Z,48.13
2019-04-13T18:17:45.235Z,45.40
2019-04-13T18:20:13.514Z,49.20
2019-04-13T18:22:41.387Z,49.80
2019-04-13T18:25:08.100Z,47.57
2019-04-13T18:27:34.935Z,48.27
2019-04-13T18:30:10.373Z,49.10
2019-04-13T18:32:30.135Z,43.33
2019-04-13T18:34:56.501Z,48.30
2019-04-13T18:37:22.753Z,49.23
2019-04-13T18:39:51.517Z,43.80
2019-04-13T18:42:17.612Z,45.53
2019-04-13T18:44:43.822Z,46.90
2019-04-13T18:47:11.304Z,49.03
2019-04-13T18:49:38.846Z,47.67
2019-04-13T18:52:05.215Z,48.30
2019-04-13T18:54:34.329Z,47.60
2019-04-13T18:57:00.621Z,44.93
2019-04-13T18:59:27.311Z,46.43
2019-04-13T19:01:53.837Z,46.03
2019-04-13T19:04:20.197Z,45.80
2019-04-13T19:06:46.459Z,46.00
2019-04-13T19:09:12.863Z,44.63
2019-04-13T19:11:39.192Z,41.13
2019-04-13T19:14:05.511Z,39.87
2019-04-13T19:16:31.660Z,39.10
2019-04-13T19:18:57.899Z,39.90
2019-04-13T19:21:24.266Z,43.07
2019-04-13T19:23:50.490Z,44.07
2019-04-13T19:26:16.648Z,40.17
2019-04-13T19:28:42.925Z,42.80
2019-04-13T19:31:09.266Z,44.30
2019-04-13T19:33:35.390Z,43.17
2019-04-13T19:36:01.611Z,43.53
2019-04-13T19:38:27.964Z,43.37
2019-04-13T19:40:54.211Z,45.17
2019-04-13T19:43:20.439Z,39.40
2019-04-13T19:45:46.833Z,39.40
2019-04-13T19:48:13.080Z,45.53
2019-04-13T19:50:39.323Z,45.10
2019-04-13T19:53:10.447Z,44.17
2019-04-13T19:55:36.707Z,42.80
2019-04-13T19:58:03.181Z,43.87
2019-04-13T20:00:31.442Z,45.27
2019-04-13T20:02:57.665Z,47.73
2019-04-13T20:05:23.914Z,45.03
2019-04-13T20:07:50.079Z,48.87
2019-04-13T20:10:16.374Z,53.47
2019-04-13T20:12:42.666Z,48.13
2019-04-13T20:15:09.751Z,46.83
2019-04-13T20:17:36.073Z,46.90
2019-04-13T20:20:05.235Z,49.50
2019-04-13T20:22:31.776Z,46.63
2019-04-13T20:24:58.525Z,46.80
2019-04-13T20:27:26.050Z,45.03
2019-04-13T20:29:53.298Z,48.57
2019-04-13T20:32:20.771Z,45.80
2019-04-13T20:34:47.171Z,46.13
2019-04-13T20:37:14.321Z,45.40
2019-04-13T20:39:43.880Z,46.00
2019-04-13T20:42:21.871Z,45.87
2019-04-13T20:44:45.368Z,49.50
2019-04-13T20:47:11.601Z,48.13
2019-04-13T20:49:37.791Z,45.80
2019-04-13T20:52:04.074Z,48.20
2019-04-13T20:54:30.288Z,46.47
2019-04-13T20:56:57.741Z,49.40
2019-04-13T20:59:24.179Z,50.23
2019-04-13T21:01:51.639Z,49.87
2019-04-13T21:04:17.974Z,49.73
2019-04-13T21:06:44.200Z,51.20
2019-04-13T21:09:11.727Z,54.20
2019-04-13T21:11:38.053Z,51.43
2019-04-13T21:14:13.819Z,46.67
2019-04-13T21:16:32.579Z,47.77
2019-04-13T21:18:58.826Z,46.13
2019-04-13T21:21:25.916Z,48.43
2019-04-13T21:23:52.192Z,46.27
2019-04-13T21:26:20.987Z,46.53
2019-04-13T21:28:47.229Z,50.27
2019-04-13T21:31:14.998Z,47.90
2019-04-13T21:33:41.153Z,43.37
2019-04-13T21:36:08.737Z,40.00
2019-04-13T21:38:35.242Z,41.10
2019-04-13T21:41:02.208Z,35.97
2019-04-13T21:43:32.314Z,43.27
2019-04-13T21:45:57.944Z,40.60
2019-04-13T21:48:24.239Z,41.37
2019-04-13T21:51:05.169Z,40.47
2019-04-13T21:53:52.785Z,42.80
2019-04-13T21:56:19.066Z,41.90
2019-04-13T21:58:45.224Z,38.93
2019-04-13T22:01:23.499Z,44.77
2019-04-13T22:03:49.781Z,44.70
2019-04-13T22:06:16.670Z,38.70
2019-04-13T22:08:42.976Z,43.37
2019-04-13T22:11:10.309Z,42.17
2019-04-13T22:13:36.664Z,47.43
2019-04-13T22:16:04.152Z,48.10
2019-04-13T22:18:30.374Z,46.53
2019-04-13T22:20:57.896Z,43.37
2019-04-13T22:23:25.722Z,41.23
2019-04-13T22:25:52.314Z,42.60
2019-04-13T22:28:21.536Z,43.47
2019-04-13T22:30:49.765Z,44.97
2019-04-13T22:33:17.518Z,43.50
2019-04-13T22:35:55.009Z,52.17
2019-04-13T22:38:21.900Z,54.00
2019-04-13T22:40:49.453Z,51.20
2019-04-13T22:43:15.962Z,51.80
2019-04-13T22:45:42.608Z,51.77
2019-04-13T22:48:27.405Z,48.30
2019-04-13T22:50:56.768Z,49.97
2019-04-13T22:53:28.421Z,52.47
2019-04-13T22:56:00.447Z,52.90
2019-04-13T22:58:26.940Z,54.70
2019-04-13T23:01:00.862Z,48.93
2019-04-13T23:03:27.241Z,51.07
2019-04-13T23:05:54.525Z,43.43
2019-04-13T23:08:20.939Z,54.17
2019-04-13T23:10:48.556Z,44.47
2019-04-13T23:13:15.148Z,43.77
2019-04-13T23:15:42.513Z,40.93
2019-04-13T23:18:10.245Z,47.80
2019-04-13T23:20:36.526Z,52.40
2019-04-13T23:23:02.906Z,50.00
2019-04-13T23:25:29.171Z,46.53
2019-04-13T23:27:55.366Z,48.97
2019-04-13T23:30:22.628Z,51.60
2019-04-13T23:32:53.120Z,55.17
2019-04-13T23:35:19.696Z,53.80
2019-04-13T23:37:46.060Z,51.93
2019-04-13T23:40:13.617Z,50.60
2019-04-13T23:42:40.074Z,47.20
2019-04-13T23:45:18.413Z,51.20
2019-04-13T23:47:36.209Z,57.13
2019-04-13T23:50:06.992Z,48.73
2019-04-13T23:52:33.269Z,47.43
2019-04-13T23:55:00.721Z,49.50
2019-04-13T23:57:46.383Z,44.33
